Fleming, Canada
Current Conditions -  °F | °C
As of 6:00 AM on Saturday 01 Nov 2014 (Local Time) from CYBR Reporting Station
Clear Clear  
Wind Chill: 20°   Ceiling: Unl
Heat Index: 28°   Visibility: 15mi
Dew Point: 18°   Wind: 8mph
Humidity: 64%   Direction: 150°SSE
Pressure: 29.95"   Gusts: NA
Location:  50.07°N, 101.52°W
Report Text: CYBR 011200Z 15007KT 15SM SKC M02/M08 A2995 RMK SLP163
Loading
Personal Weather Stations






























Interactive Weather Map
Tropical Storm Tracking
New forecast layout! Learn more

10-Day Weather Forecast

Advertisements
Track Severe Weather on mobile